Time;durP1;ratioP1;P1;durP2;ratioP2;P2;SDS_P1;SDS_P2;PMS_P1;PMS_P2;Temp;Humidity;BMP_temperature;BMP_pressure;BME280_temperature;BME280_humidity;BME280_pressure;Samples;Min_cycle;Max_cycle;Signal;HPM_P1;HPM_P2
2022/10/08 00:02:10;;;;;;;;;13.00;13.00;25.60;99.90;;;;;;5026707;28;8903;-65
2022/10/08 00:04:44;;;;;;;;;12.25;10.50;25.60;99.90;;;;;;5031508;28;8887;-68
2022/10/08 00:07:16;;;;;;;;;11.00;11.00;25.50;99.90;;;;;;5028527;28;11397;-65
2022/10/08 00:09:45;;;;;;;;;11.00;9.00;25.50;99.90;;;;;;5029143;28;8870;-61
2022/10/08 00:12:17;;;;;;;;;11.00;11.00;25.40;99.90;;;;;;5057843;28;8855;-63
2022/10/08 00:14:46;;;;;;;;;9.50;8.75;25.40;99.90;;;;;;5027191;28;9569;-63
2022/10/08 00:17:19;;;;;;;;;12.25;12.25;25.30;99.90;;;;;;5045307;28;9393;-60
2022/10/08 00:19:49;;;;;;;;;14.50;13.25;25.30;99.90;;;;;;5029539;28;8840;-61
2022/10/08 00:22:27;;;;;;;;;20.50;20.50;25.20;99.90;;;;;;5023791;28;8837;-61
2022/10/08 00:25:03;;;;;;;;;19.50;19.50;25.20;99.90;;;;;;5020413;28;9601;-62
2022/10/08 00:27:33;;;;;;;;;17.00;16.75;25.10;99.90;;;;;;5018329;28;8898;-63
2022/10/08 00:30:08;;;;;;;;;14.25;14.25;25.10;99.90;;;;;;5021049;28;8851;-65
2022/10/08 00:32:38;;;;;;;;;13.00;13.00;25.00;99.90;;;;;;5020040;28;8831;-66
2022/10/08 00:35:12;;;;;;;;;12.75;12.75;25.00;99.90;;;;;;5023002;28;9035;-60
2022/10/08 00:37:43;;;;;;;;;14.00;14.00;25.00;99.90;;;;;;5022286;28;8847;-59
2022/10/08 00:40:16;;;;;;;;;13.50;13.50;24.90;99.90;;;;;;5023357;28;9342;-57
2022/10/08 00:42:49;;;;;;;;;12.25;12.25;24.90;99.90;;;;;;5025769;28;8851;-59
2022/10/08 00:45:20;;;;;;;;;14.25;14.25;25.00;99.90;;;;;;5020210;28;9630;-60
2022/10/08 00:47:52;;;;;;;;;12.00;12.00;24.80;99.90;;;;;;5022020;28;8868;-61
2022/10/08 00:50:36;;;;;;;;;15.00;15.00;24.80;99.90;;;;;;5024148;28;8864;-60
2022/10/08 00:53:08;;;;;;;;;12.00;12.00;24.70;99.90;;;;;;5041586;28;8858;-58
2022/10/08 00:55:43;;;;;;;;;11.75;11.75;24.70;99.90;;;;;;5056670;28;8848;-58
2022/10/08 00:58:22;;;;;;;;;13.50;13.25;24.60;99.90;;;;;;5039954;28;8832;-59
2022/10/08 01:00:52;;;;;;;;;11.00;11.00;24.60;99.90;;;;;;5022563;28;8846;-58
2022/10/08 01:03:23;;;;;;;;;14.00;14.00;24.50;99.90;;;;;;5023236;28;8843;-61
2022/10/08 01:06:22;;;;;;;;;11.50;11.50;24.50;99.90;;;;;;5023022;28;8886;-61
2022/10/08 01:09:20;;;;;;;;;11.75;11.75;24.40;99.90;;;;;;5017974;28;8901;-60
2022/10/08 01:11:59;;;;;;;;;12.25;12.00;24.40;99.90;;;;;;5028105;28;8886;-61
2022/10/08 01:14:40;;;;;;;;;14.50;14.50;24.40;99.90;;;;;;5025654;28;8836;-58
2022/10/08 01:17:32;;;;;;;;;16.00;14.00;24.30;99.90;;;;;;5053531;28;8845;-59
2022/10/08 01:20:19;;;;;;;;;15.25;15.25;24.30;99.90;;;;;;5024146;28;8847;-61
2022/10/08 01:23:07;;;;;;;;;8.50;8.50;24.30;99.90;;;;;;5016079;28;8886;-59
2022/10/08 01:26:14;;;;;;;;;14.25;14.25;24.30;99.90;;;;;;5013956;28;8828;-57
2022/10/08 01:29:29;;;;;;;;;14.75;14.75;24.20;99.90;;;;;;5019440;28;8885;-57
2022/10/08 01:32:09;;;;;;;;;15.00;15.00;24.10;99.90;;;;;;5020138;28;9021;-58
2022/10/08 01:34:47;;;;;;;;;13.50;13.50;24.10;99.90;;;;;;5003739;28;9326;-58
2022/10/08 01:37:28;;;;;;;;;14.00;14.00;24.10;99.90;;;;;;5027642;28;8875;-57
2022/10/08 01:40:04;;;;;;;;;12.50;12.50;24.10;99.90;;;;;;5025279;28;9898;-64
2022/10/08 01:42:38;;;;;;;;;14.50;14.50;24.00;99.90;;;;;;5028263;28;8846;-65
2022/10/08 01:45:19;;;;;;;;;14.75;14.75;24.00;99.90;;;;;;5029016;28;8896;-65
2022/10/08 01:47:50;;;;;;;;;12.50;12.50;24.00;99.90;;;;;;5030538;28;8890;-64
2022/10/08 01:50:37;;;;;;;;;14.75;14.75;24.00;99.90;;;;;;5025305;28;8833;-60
2022/10/08 01:53:16;;;;;;;;;14.00;14.00;23.90;99.90;;;;;;5039099;28;8962;-57
2022/10/08 01:55:53;;;;;;;;;14.00;14.00;23.90;99.90;;;;;;5019314;28;8871;-57
2022/10/08 01:58:33;;;;;;;;;14.25;14.25;23.80;99.90;;;;;;5019788;28;8859;-58
2022/10/08 02:01:26;;;;;;;;;14.75;14.75;23.80;99.90;;;;;;5039318;28;8901;-58
2022/10/08 02:06:54;;;;;;;;;11.50;11.50;23.70;99.90;;;;;;5022040;28;8856;-65
2022/10/08 02:09:29;;;;;;;;;13.50;13.50;23.70;99.90;;;;;;5020021;28;8858;-68
2022/10/08 02:12:00;;;;;;;;;12.75;12.75;23.60;99.90;;;;;;5018830;28;8868;-64
2022/10/08 02:14:37;;;;;;;;;13.25;13.25;23.70;99.90;;;;;;5019362;28;8856;-65
2022/10/08 02:17:45;;;;;;;;;15.75;15.75;23.70;99.90;;;;;;5023357;28;8831;-64
2022/10/08 02:20:35;;;;;;;;;10.75;10.25;23.70;99.90;;;;;;5051448;28;8830;-57
2022/10/08 02:24:10;;;;;;;;;13.75;12.25;23.60;99.90;;;;;;5012983;28;8872;-60
2022/10/08 02:26:47;;;;;;;;;13.25;13.25;23.60;99.90;;;;;;4960630;28;8858;-61
2022/10/08 02:29:25;;;;;;;;;12.00;12.00;23.60;99.90;;;;;;5011013;28;9645;-68
2022/10/08 02:32:02;;;;;;;;;13.50;13.50;23.50;99.90;;;;;;5013692;28;8847;-61
2022/10/08 02:34:39;;;;;;;;;15.00;15.00;23.50;99.90;;;;;;5019049;28;8839;-58
2022/10/08 02:37:46;;;;;;;;;15.25;15.25;23.50;99.90;;;;;;5016479;28;8870;-58
2022/10/08 02:40:23;;;;;;;;;14.00;14.00;23.40;99.90;;;;;;5054053;28;8856;-60
2022/10/08 02:43:01;;;;;;;;;17.75;17.75;23.40;99.90;;;;;;5025439;28;8844;-59
2022/10/08 02:45:42;;;;;;;;;14.50;14.50;23.30;99.90;;;;;;5054881;28;8874;-58
2022/10/08 02:48:23;;;;;;;;;20.25;18.75;23.30;99.90;;;;;;5026167;28;8853;-59
2022/10/08 02:51:11;;;;;;;;;14.50;14.50;23.20;99.90;;;;;;5027233;28;8833;-58
2022/10/08 02:53:41;;;;;;;;;15.00;15.00;23.30;99.90;;;;;;5022800;28;9336;-59
2022/10/08 02:56:33;;;;;;;;;16.25;16.25;23.50;99.90;;;;;;5028616;28;8893;-60
2022/10/08 02:59:06;;;;;;;;;14.50;14.50;23.50;99.90;;;;;;5028290;28;8833;-61
2022/10/08 03:01:58;;;;;;;;;15.75;15.75;23.50;99.90;;;;;;5035941;28;8870;-59
2022/10/08 03:04:52;;;;;;;;;15.00;15.00;23.40;99.90;;;;;;5022002;28;8856;-58
2022/10/08 03:07:25;;;;;;;;;15.75;15.75;23.20;99.90;;;;;;5020064;28;8827;-57
2022/10/08 03:09:58;;;;;;;;;17.00;17.00;23.20;99.90;;;;;;5027166;28;8867;-60
2022/10/08 03:12:33;;;;;;;;;13.25;13.25;23.20;99.90;;;;;;5027374;28;8860;-60
2022/10/08 03:15:06;;;;;;;;;15.00;15.00;23.30;99.90;;;;;;5023898;28;8845;-58
2022/10/08 03:17:41;;;;;;;;;13.75;13.75;23.40;99.90;;;;;;5053821;28;8868;-59
2022/10/08 03:20:14;;;;;;;;;16.00;14.50;23.60;99.90;;;;;;5009238;28;8848;-60
2022/10/08 03:22:51;;;;;;;;;14.00;14.00;23.50;99.90;;;;;;5051598;28;8834;-59
2022/10/08 03:25:23;;;;;;;;;14.50;14.50;23.40;99.90;;;;;;5020066;28;8867;-60
2022/10/08 03:27:54;;;;;;;;;12.50;12.50;23.30;99.90;;;;;;5024522;28;8864;-59
2022/10/08 03:30:27;;;;;;;;;13.00;13.00;23.30;99.90;;;;;;5021449;28;8858;-59
2022/10/08 03:33:01;;;;;;;;;15.00;15.00;23.40;99.90;;;;;;5017374;28;8862;-57
2022/10/08 03:35:33;;;;;;;;;12.25;12.25;23.40;99.90;;;;;;5022524;28;8844;-58
2022/10/08 03:38:06;;;;;;;;;11.50;11.50;23.30;99.90;;;;;;5022532;28;8864;-59
2022/10/08 03:40:37;;;;;;;;;14.00;14.00;23.30;99.90;;;;;;5019290;28;8870;-59
2022/10/08 03:43:08;;;;;;;;;10.00;10.00;23.40;99.90;;;;;;5041252;28;8887;-61
2022/10/08 03:45:48;;;;;;;;;13.00;13.00;23.30;99.90;;;;;;5024362;28;8908;-60
2022/10/08 03:48:22;;;;;;;;;12.75;12.75;23.30;99.90;;;;;;5020315;28;8887;-60
2022/10/08 03:50:56;;;;;;;;;12.50;12.50;23.20;99.90;;;;;;5022593;28;8843;-59
2022/10/08 03:53:31;;;;;;;;;13.50;13.50;23.20;99.90;;;;;;5050501;28;8884;-58
2022/10/08 03:56:07;;;;;;;;;13.25;13.25;23.20;99.90;;;;;;5016491;28;8907;-59
2022/10/08 03:58:57;;;;;;;;;13.00;13.00;23.20;99.90;;;;;;5020544;28;8928;-61
2022/10/08 04:01:29;;;;;;;;;14.00;14.00;23.00;99.90;;;;;;5019646;28;8849;-59
2022/10/08 04:04:03;;;;;;;;;12.25;12.25;22.90;99.90;;;;;;5007694;28;8874;-60
2022/10/08 04:06:33;;;;;;;;;14.00;14.00;22.90;99.90;;;;;;5047084;28;9142;-57
2022/10/08 04:09:08;;;;;;;;;12.50;12.50;22.80;99.90;;;;;;5019374;28;9837;-58
2022/10/08 04:11:38;;;;;;;;;11.00;11.00;22.80;99.90;;;;;;5036219;28;8878;-58
2022/10/08 04:14:08;;;;;;;;;11.00;11.00;22.80;99.90;;;;;;5031594;28;8899;-62
2022/10/08 04:16:38;;;;;;;;;17.50;14.75;22.80;99.90;;;;;;5026517;28;8848;-59
2022/10/08 04:19:16;;;;;;;;;15.75;15.75;22.70;99.90;;;;;;5034284;28;8874;-59
2022/10/08 04:21:49;;;;;;;;;13.50;12.00;22.70;99.90;;;;;;5057397;28;8853;-59
2022/10/08 04:24:20;;;;;;;;;15.00;15.00;22.80;99.90;;;;;;5025645;28;8836;-59
2022/10/08 04:26:51;;;;;;;;;12.75;12.75;22.80;99.90;;;;;;5026361;28;8836;-59
2022/10/08 04:29:22;;;;;;;;;11.75;11.75;22.80;99.90;;;;;;5027209;28;8910;-59
2022/10/08 04:31:52;;;;;;;;;12.25;12.25;23.00;99.90;;;;;;5028217;28;8860;-59
2022/10/08 04:34:24;;;;;;;;;16.50;14.00;23.10;99.90;;;;;;5023787;28;8855;-60
2022/10/08 04:36:58;;;;;;;;;12.25;12.25;23.20;99.90;;;;;;5021031;28;8888;-60
2022/10/08 04:39:30;;;;;;;;;14.75;14.75;23.20;99.90;;;;;;5056486;28;8981;-61
2022/10/08 04:42:04;;;;;;;;;11.50;11.50;23.20;99.90;;;;;;5024112;28;8859;-62
2022/10/08 04:44:35;;;;;;;;;12.50;12.00;23.20;99.90;;;;;;5056061;28;9024;-58
2022/10/08 04:47:06;;;;;;;;;11.25;10.75;23.20;99.90;;;;;;5013742;28;8841;-60
2022/10/08 04:49:39;;;;;;;;;11.75;11.75;23.20;99.90;;;;;;5041383;27;8847;-63
2022/10/08 04:52:10;;;;;;;;;10.50;10.50;23.10;99.90;;;;;;5023985;28;8851;-61
2022/10/08 04:54:44;;;;;;;;;12.25;12.25;23.00;99.90;;;;;;5028379;28;8880;-61
2022/10/08 04:57:19;;;;;;;;;12.00;12.00;22.80;99.90;;;;;;5055852;28;8838;-60
2022/10/08 04:59:52;;;;;;;;;13.00;13.00;22.80;99.90;;;;;;5025728;28;8870;-59
2022/10/08 05:02:46;;;;;;;;;12.50;12.50;22.70;99.90;;;;;;5027299;28;8917;-59
2022/10/08 05:05:17;;;;;;;;;12.00;12.00;22.50;99.90;;;;;;5027855;28;8828;-60
2022/10/08 05:07:49;;;;;;;;;12.00;12.00;22.50;99.90;;;;;;5039612;28;8831;-58
2022/10/08 05:10:25;;;;;;;;;11.25;11.25;22.40;99.90;;;;;;5029694;28;8825;-59
2022/10/08 05:13:15;;;;;;;;;13.25;12.75;22.40;99.90;;;;;;5030893;28;8808;-59
2022/10/08 05:15:47;;;;;;;;;10.00;10.00;22.30;99.90;;;;;;5027771;28;8863;-60
2022/10/08 05:18:17;;;;;;;;;13.00;13.00;22.30;99.90;;;;;;5023839;27;8849;-61
2022/10/08 05:20:52;;;;;;;;;13.00;13.00;22.10;99.90;;;;;;5022989;28;8872;-60
2022/10/08 05:23:23;;;;;;;;;11.25;11.25;22.00;99.90;;;;;;5025726;28;8832;-60
2022/10/08 05:25:53;;;;;;;;;11.00;11.00;22.00;99.90;;;;;;5023559;28;8850;-61
2022/10/08 05:28:26;;;;;;;;;8.00;8.00;22.00;99.90;;;;;;5021631;28;8868;-60
2022/10/08 05:31:00;;;;;;;;;12.00;10.75;21.90;99.90;;;;;;5031476;28;8876;-63
2022/10/08 05:33:34;;;;;;;;;11.00;11.00;21.80;99.90;;;;;;5024635;28;8844;-59
2022/10/08 05:36:07;;;;;;;;;11.25;11.25;21.70;99.90;;;;;;5025155;28;8858;-59
2022/10/08 05:38:44;;;;;;;;;10.25;10.25;21.60;99.90;;;;;;5023588;28;8889;-61
2022/10/08 05:41:35;;;;;;;;;9.75;9.75;21.70;99.90;;;;;;5030605;28;8844;-60
2022/10/08 05:44:06;;;;;;;;;11.00;11.00;21.70;99.90;;;;;;5026959;28;8856;-59
2022/10/08 05:46:45;;;;;;;;;12.00;12.00;21.60;99.90;;;;;;5038987;28;8821;-59
2022/10/08 05:49:21;;;;;;;;;11.25;11.25;21.50;99.90;;;;;;5032973;28;8868;-60
2022/10/08 05:51:53;;;;;;;;;12.25;11.00;21.40;99.90;;;;;;5042032;28;8832;-61
2022/10/08 05:54:26;;;;;;;;;11.25;11.25;21.30;99.90;;;;;;5065171;28;8859;-62
2022/10/08 05:56:58;;;;;;;;;12.00;12.00;21.30;99.90;;;;;;5025995;28;8892;-61
2022/10/08 05:59:29;;;;;;;;;9.75;9.75;21.40;99.90;;;;;;5064974;28;8844;-61
2022/10/08 06:02:01;;;;;;;;;7.25;7.25;21.40;99.90;;;;;;5050787;28;8867;-61
2022/10/08 06:04:33;;;;;;;;;9.50;9.50;21.40;99.90;;;;;;5032999;28;9535;-61
2022/10/08 06:07:05;;;;;;;;;10.25;10.25;21.40;99.90;;;;;;5037744;28;8873;-60
2022/10/08 06:09:35;;;;;;;;;9.25;9.25;21.20;99.90;;;;;;5028569;28;9610;-60
2022/10/08 06:12:08;;;;;;;;;9.00;9.00;21.20;99.90;;;;;;5066243;28;8844;-60
2022/10/08 06:14:41;;;;;;;;;8.25;8.25;21.10;99.90;;;;;;5034150;28;8859;-58
2022/10/08 06:17:13;;;;;;;;;9.75;9.75;21.20;99.90;;;;;;5036893;28;8864;-60
2022/10/08 06:19:47;;;;;;;;;10.25;10.25;21.20;99.90;;;;;;5035075;28;8848;-61
2022/10/08 06:22:22;;;;;;;;;11.00;9.25;21.10;99.90;;;;;;5061984;28;8914;-61
2022/10/08 06:24:58;;;;;;;;;10.50;9.25;21.00;99.90;;;;;;5058025;28;8847;-60
2022/10/08 06:27:28;;;;;;;;;9.00;9.00;20.90;99.90;;;;;;5031284;28;8850;-58
2022/10/08 06:30:00;;;;;;;;;9.00;9.00;20.90;99.90;;;;;;5041090;28;8831;-59
2022/10/08 06:32:30;;;;;;;;;11.00;11.00;21.20;99.90;;;;;;5032177;28;8866;-59
2022/10/08 06:35:10;;;;;;;;;8.50;8.50;21.20;99.90;;;;;;5031028;28;8836;-59
2022/10/08 06:37:41;;;;;;;;;9.50;9.50;21.00;99.90;;;;;;5031667;28;8876;-59
2022/10/08 06:40:19;;;;;;;;;5.25;5.25;20.90;99.90;;;;;;5031511;28;8843;-60
2022/10/08 06:42:53;;;;;;;;;8.00;8.00;20.90;99.90;;;;;;5059092;28;8837;-59
2022/10/08 06:45:29;;;;;;;;;7.00;7.00;20.80;99.90;;;;;;5032359;28;8955;-60
2022/10/08 06:48:00;;;;;;;;;9.50;9.50;20.70;99.90;;;;;;5029546;28;8887;-60
2022/10/08 06:50:32;;;;;;;;;11.00;9.75;20.70;99.90;;;;;;5033924;28;8888;-60
2022/10/08 06:53:05;;;;;;;;;8.75;8.75;20.60;99.90;;;;;;5034111;28;8818;-58
2022/10/08 06:55:37;;;;;;;;;12.25;12.25;20.60;99.90;;;;;;5060674;28;8846;-59
2022/10/08 06:58:09;;;;;;;;;13.00;12.00;20.50;99.90;;;;;;5029837;28;8872;-59
2022/10/08 07:00:43;;;;;;;;;11.75;11.75;20.50;99.90;;;;;;5029059;28;8876;-59
2022/10/08 07:03:14;;;;;;;;;10.00;10.00;20.50;99.90;;;;;;5027053;28;11037;-59
2022/10/08 07:05:49;;;;;;;;;10.25;8.50;20.60;99.90;;;;;;5026866;28;8826;-60
2022/10/08 07:08:19;;;;;;;;;11.25;11.25;20.50;99.90;;;;;;5040493;28;8876;-59
2022/10/08 07:10:53;;;;;;;;;12.25;12.25;20.50;99.90;;;;;;5051007;28;8876;-59
2022/10/08 07:13:27;;;;;;;;;8.75;8.75;20.50;99.90;;;;;;5027868;28;8868;-61
2022/10/08 07:16:08;;;;;;;;;10.00;10.00;20.50;99.90;;;;;;5027305;28;8902;-61
2022/10/08 07:18:46;;;;;;;;;8.75;8.75;20.50;99.90;;;;;;5028255;28;8864;-61
2022/10/08 07:21:23;;;;;;;;;11.50;10.75;20.60;99.90;;;;;;5026281;28;8865;-59
2022/10/08 07:23:55;;;;;;;;;8.75;8.75;20.50;99.90;;;;;;5033885;28;8987;-61
2022/10/08 07:26:29;;;;;;;;;10.50;10.50;20.40;99.90;;;;;;5048223;28;8863;-60
2022/10/08 07:29:08;;;;;;;;;8.00;8.00;20.50;99.90;;;;;;5028995;27;8878;-59
2022/10/08 07:31:42;;;;;;;;;9.50;9.50;20.40;99.90;;;;;;5029323;28;8847;-59
2022/10/08 07:34:15;;;;;;;;;9.25;9.25;20.30;99.90;;;;;;5030389;28;8879;-59
2022/10/08 07:36:46;;;;;;;;;8.75;8.75;20.20;99.90;;;;;;5033882;28;8867;-59
2022/10/08 07:39:18;;;;;;;;;9.75;9.75;20.20;99.90;;;;;;5026078;28;8848;-60
2022/10/08 07:41:51;;;;;;;;;10.00;10.00;20.10;99.90;;;;;;5027871;28;8876;-59
2022/10/08 07:44:22;;;;;;;;;9.00;9.00;20.20;99.90;;;;;;5033838;28;8840;-61
2022/10/08 07:46:53;;;;;;;;;8.50;8.50;20.30;99.90;;;;;;5027388;28;8875;-61
2022/10/08 07:49:23;;;;;;;;;7.00;7.00;20.30;99.90;;;;;;5026541;28;8861;-63
2022/10/08 07:51:55;;;;;;;;;7.50;7.50;20.40;99.90;;;;;;5046056;28;8828;-59
2022/10/08 07:54:25;;;;;;;;;8.00;8.00;20.50;99.90;;;;;;5019986;28;8849;-61
2022/10/08 07:56:55;;;;;;;;;8.75;8.75;20.40;99.90;;;;;;5054422;28;8844;-62
2022/10/08 07:59:26;;;;;;;;;9.00;9.00;20.40;99.90;;;;;;5026456;28;8852;-60
2022/10/08 08:01:57;;;;;;;;;11.00;11.00;20.20;99.90;;;;;;5030463;28;8883;-59
2022/10/08 08:04:33;;;;;;;;;7.00;7.00;20.10;99.90;;;;;;5024026;28;8865;-59
2022/10/08 08:07:04;;;;;;;;;8.25;8.25;20.00;99.90;;;;;;5025184;28;8890;-59
2022/10/08 08:09:34;;;;;;;;;7.25;7.25;19.90;99.90;;;;;;5048661;28;8847;-58
2022/10/08 08:12:04;;;;;;;;;6.25;6.25;19.80;99.90;;;;;;5021933;28;8847;-62
2022/10/08 08:14:36;;;;;;;;;8.25;8.25;19.80;99.90;;;;;;5028291;28;9185;-61
2022/10/08 08:17:06;;;;;;;;;7.75;7.75;19.80;99.90;;;;;;5027247;28;8825;-61
2022/10/08 08:19:39;;;;;;;;;10.00;10.00;19.80;99.90;;;;;;5027351;28;8852;-60
2022/10/08 08:22:13;;;;;;;;;9.00;9.00;19.80;99.90;;;;;;5026184;28;9544;-58
2022/10/08 08:24:48;;;;;;;;;10.67;9.67;19.70;99.90;;;;;;5019215;28;8961;-59
2022/10/08 08:27:21;;;;;;;;;9.67;9.67;19.80;99.90;;;;;;5016026;28;9031;-60
2022/10/08 08:29:52;;;;;;;;;10.00;10.00;20.20;99.90;;;;;;5020303;28;9077;-64
2022/10/08 08:32:31;;;;;;;;;6.00;6.00;20.20;99.90;;;;;;5051159;28;9762;-58
2022/10/08 08:35:01;;;;;;;;;9.00;9.00;20.10;99.90;;;;;;5054069;28;8915;-61
2022/10/08 08:37:33;;;;;;;;;9.75;9.75;20.10;99.90;;;;;;5027453;28;9069;-61
2022/10/08 08:40:03;;;;;;;;;9.50;9.50;20.00;99.90;;;;;;5054342;28;8875;-61
2022/10/08 08:42:55;;;;;;;;;8.67;8.67;20.00;99.90;;;;;;5035077;28;8948;-62
2022/10/08 08:45:29;;;;;;;;;8.50;8.50;20.10;99.90;;;;;;5036934;28;9004;-61
2022/10/08 08:48:31;;;;;;;;;6.67;6.67;19.90;99.90;;;;;;5034022;28;8857;-61
2022/10/08 08:51:05;;;;;;;;;10.00;10.00;19.90;99.90;;;;;;5024607;28;9028;-59
2022/10/08 08:53:39;;;;;;;;;9.00;9.00;19.60;99.90;;;;;;5026583;28;8923;-59
2022/10/08 08:56:23;;;;;;;;;10.33;9.33;19.80;99.90;;;;;;5026076;28;8967;-58
2022/10/08 08:59:05;;;;;;;;;9.00;9.00;19.80;99.90;;;;;;5040851;28;8994;-60
2022/10/08 09:01:44;;;;;;;;;8.00;8.00;20.00;99.90;;;;;;5028631;28;9085;-61
2022/10/08 09:04:43;;;;;;;;;9.33;9.33;20.00;99.90;;;;;;5028244;28;8986;-60
2022/10/08 09:07:18;;;;;;;;;9.00;9.00;19.80;99.90;;;;;;5025735;28;8916;-61
2022/10/08 09:09:57;;;;;;;;;10.00;10.00;19.90;99.90;;;;;;5052522;27;8851;-61
2022/10/08 09:12:40;;;;;;;;;11.00;9.00;19.90;99.90;;;;;;5028943;28;9403;-61
2022/10/08 09:15:27;;;;;;;;;10.33;10.00;19.90;99.90;;;;;;5023322;28;9169;-60
2022/10/08 09:18:01;;;;;;;;;13.33;13.33;19.90;99.90;;;;;;5023894;28;8938;-61
2022/10/08 09:20:32;;;;;;;;;10.33;9.67;19.90;99.90;;;;;;5018591;28;9244;-63
2022/10/08 09:23:25;;;;;;;;;11.00;11.00;19.90;99.90;;;;;;5031474;28;9012;-61
2022/10/08 09:26:15;;;;;;;;;10.33;10.00;19.90;99.90;;;;;;5027482;28;9067;-64
2022/10/08 09:28:51;;;;;;;;;9.33;9.33;19.90;99.90;;;;;;5027908;28;9229;-60
2022/10/08 09:31:30;;;;;;;;;9.67;9.33;19.80;99.90;;;;;;5029476;28;9201;-60
2022/10/08 09:34:16;;;;;;;;;10.33;10.33;19.80;99.90;;;;;;5024491;28;8919;-60
2022/10/08 09:37:02;;;;;;;;;9.00;9.00;19.80;99.90;;;;;;5030079;28;9007;-60
2022/10/08 09:39:36;;;;;;;;;9.33;9.33;19.80;99.90;;;;;;5039937;28;8984;-59
2022/10/08 09:42:16;;;;;;;;;10.33;10.33;19.70;99.90;;;;;;5023995;28;9442;-59
2022/10/08 09:44:56;;;;;;;;;9.67;9.67;19.90;99.90;;;;;;5058091;28;9010;-62
2022/10/08 09:47:29;;;;;;;;;10.00;10.00;19.70;99.90;;;;;;5043552;28;9301;-61
2022/10/08 09:50:05;;;;;;;;;9.67;9.67;19.90;99.90;;;;;;5065666;28;9003;-60
2022/10/08 09:52:41;;;;;;;;;11.00;11.00;19.70;99.90;;;;;;5047821;28;9243;-59
2022/10/08 09:55:15;;;;;;;;;9.67;9.67;19.70;99.90;;;;;;5039964;28;9367;-60
2022/10/08 09:57:49;;;;;;;;;11.00;9.67;19.70;99.90;;;;;;5051426;28;9073;-61
2022/10/08 10:00:38;;;;;;;;;11.00;9.33;19.70;99.90;;;;;;5047307;28;9012;-61
2022/10/08 10:03:17;;;;;;;;;9.00;9.00;19.60;99.90;;;;;;5051766;28;9217;-58
2022/10/08 10:05:54;;;;;;;;;8.00;8.00;19.60;99.90;;;;;;5026296;28;9196;-59
2022/10/08 10:08:54;;;;;;;;;12.00;12.00;19.50;99.90;;;;;;5042209;28;9159;-60
2022/10/08 10:11:40;;;;;;;;;8.00;8.00;19.50;99.90;;;;;;5037263;28;9396;-59
2022/10/08 10:14:29;;;;;;;;;8.33;8.33;19.50;99.90;;;;;;5040253;28;9083;-61
2022/10/08 10:17:07;;;;;;;;;10.67;10.67;19.40;99.90;;;;;;5034322;28;9262;-61
2022/10/08 10:19:59;;;;;;;;;11.00;11.00;19.50;99.90;;;;;;5059652;28;9256;-60
2022/10/08 10:22:55;;;;;;;;;5.00;5.00;19.30;99.90;;;;;;5044644;28;10052;-59
2022/10/08 10:25:43;;;;;;;;;7.33;7.33;19.40;99.90;;;;;;5008449;28;9318;-59
2022/10/08 10:28:44;;;;;;;;;7.67;7.67;19.30;99.90;;;;;;5005215;28;9253;-59
2022/10/08 10:31:28;;;;;;;;;7.67;7.67;19.30;99.90;;;;;;5008687;28;9437;-59
2022/10/08 10:34:13;;;;;;;;;8.00;8.00;19.20;99.90;;;;;;5015008;28;9392;-59
2022/10/08 10:36:58;;;;;;;;;10.00;10.00;19.30;99.90;;;;;;5011251;28;9173;-61
2022/10/08 10:39:48;;;;;;;;;9.00;8.00;19.20;99.90;;;;;;5001924;28;9327;-61
2022/10/08 10:42:35;;;;;;;;;7.00;7.00;19.20;99.90;;;;;;5012825;28;9258;-61
2022/10/08 10:45:22;;;;;;;;;6.00;6.00;19.30;99.90;;;;;;5007311;28;9027;-62
2022/10/08 10:47:54;;;;;;;;;8.67;8.67;19.30;99.90;;;;;;5011761;28;9156;-61
2022/10/08 10:50:54;;;;;;;;;6.33;6.33;19.30;99.90;;;;;;5018843;28;9083;-61
2022/10/08 10:54:04;;;;;;;;;8.00;8.00;19.10;99.90;;;;;;5008455;28;9090;-61
2022/10/08 10:56:41;;;;;;;;;6.67;6.67;19.20;99.90;;;;;;5043778;28;9191;-61
2022/10/08 10:59:23;;;;;;;;;6.33;6.33;19.20;99.90;;;;;;5040772;28;9493;-61
2022/10/08 11:02:23;;;;;;;;;6.33;6.33;19.10;99.90;;;;;;5016430;28;9160;-58
2022/10/08 11:05:02;;;;;;;;;7.00;7.00;19.10;99.90;;;;;;5031816;28;9787;-61
2022/10/08 11:08:13;;;;;;;;;6.33;6.00;19.20;99.90;;;;;;5016953;28;9180;-61
2022/10/08 11:11:06;;;;;;;;;8.33;8.33;19.20;99.90;;;;;;5006018;28;9062;-59
2022/10/08 11:14:01;;;;;;;;;8.00;8.00;19.00;99.90;;;;;;5023273;28;9023;-61
2022/10/08 11:17:01;;;;;;;;;7.33;7.33;19.10;99.90;;;;;;5017787;28;10051;-61
2022/10/08 11:19:46;;;;;;;;;5.00;5.00;19.20;99.90;;;;;;5004697;28;9341;-61
2022/10/08 11:22:57;;;;;;;;;8.00;7.00;19.10;99.90;;;;;;5019138;28;10231;-60
2022/10/08 11:25:44;;;;;;;;;6.00;6.00;19.20;99.90;;;;;;5007934;28;9989;-60
2022/10/08 11:28:51;;;;;;;;;7.67;7.67;19.20;99.90;;;;;;5009899;28;9104;-59
2022/10/08 11:31:48;;;;;;;;;7.67;7.67;19.20;99.90;;;;;;5022452;28;9191;-58
2022/10/08 11:34:28;;;;;;;;;8.00;8.00;19.10;99.90;;;;;;5000110;28;9194;-59
2022/10/08 11:37:27;;;;;;;;;8.33;8.33;19.10;99.90;;;;;;5003438;28;9235;-60
2022/10/08 11:40:29;;;;;;;;;6.00;6.00;19.10;99.90;;;;;;5001541;28;9111;-59
2022/10/08 11:43:29;;;;;;;;;6.00;6.00;19.00;99.90;;;;;;5013642;28;9085;-59
2022/10/08 11:46:35;;;;;;;;;6.00;6.00;19.00;99.90;;;;;;5037102;28;9242;-61
2022/10/08 11:49:15;;;;;;;;;5.67;5.67;18.90;99.90;;;;;;5021459;28;9194;-60
2022/10/08 11:51:54;;;;;;;;;7.67;7.67;19.10;99.90;;;;;;5010906;28;9405;-61
2022/10/08 11:54:33;;;;;;;;;8.00;8.00;19.10;99.90;;;;;;5011954;28;9230;-62
2022/10/08 11:57:32;;;;;;;;;8.00;8.00;19.10;99.90;;;;;;5006654;28;9177;-61
2022/10/08 12:00:41;;;;;;;;;7.00;7.00;19.20;99.90;;;;;;5011502;28;9322;-60
2022/10/08 12:03:41;;;;;;;;;7.00;7.00;19.20;99.90;;;;;;5012068;28;9247;-59
2022/10/08 12:06:32;;;;;;;;;7.00;7.00;19.20;99.90;;;;;;5016221;28;9270;-59
2022/10/08 12:09:27;;;;;;;;;6.00;6.00;19.10;99.90;;;;;;5041073;28;9286;-59
2022/10/08 12:12:11;;;;;;;;;5.67;5.67;19.20;99.90;;;;;;5021365;28;10256;-60
2022/10/08 12:14:48;;;;;;;;;8.67;8.67;19.20;99.90;;;;;;5008934;28;9325;-59
2022/10/08 12:17:21;;;;;;;;;7.00;7.00;19.10;99.90;;;;;;5009186;28;9267;-59
2022/10/08 12:20:23;;;;;;;;;6.00;6.00;19.10;99.90;;;;;;5008415;28;9227;-59
2022/10/08 12:23:01;;;;;;;;;7.33;7.33;19.00;99.90;;;;;;5001341;28;9135;-59
2022/10/08 12:26:01;;;;;;;;;7.67;7.67;19.10;99.90;;;;;;4996415;28;9500;-60
2022/10/08 12:28:36;;;;;;;;;7.67;7.33;19.10;99.90;;;;;;4999676;28;9195;-60
2022/10/08 12:31:38;;;;;;;;;7.67;7.67;18.90;99.90;;;;;;5004051;28;9128;-60
2022/10/08 12:34:22;;;;;;;;;6.00;6.00;18.90;99.90;;;;;;5025614;28;9190;-59
2022/10/08 12:37:33;;;;;;;;;5.00;5.00;18.90;99.90;;;;;;5003289;28;11611;-60
2022/10/08 12:40:30;;;;;;;;;7.00;7.00;19.00;99.90;;;;;;4999316;28;9343;-61
2022/10/08 12:43:27;;;;;;;;;7.67;7.67;18.90;99.90;;;;;;5000131;28;9218;-59
2022/10/08 12:46:18;;;;;;;;;5.00;5.00;18.90;99.90;;;;;;5004353;28;9302;-59
2022/10/08 12:49:00;;;;;;;;;6.33;6.33;18.70;99.90;;;;;;5033124;28;9253;-60
2022/10/08 12:51:52;;;;;;;;;7.33;7.33;18.80;99.90;;;;;;5003473;28;9248;-61
2022/10/08 12:54:28;;;;;;;;;8.67;8.67;18.90;99.90;;;;;;5005622;28;9240;-59
2022/10/08 12:57:09;;;;;;;;;6.67;6.67;18.80;99.90;;;;;;5001338;28;11252;-60
2022/10/08 12:59:42;;;;;;;;;6.67;5.33;18.80;99.90;;;;;;5017150;28;9330;-59
2022/10/08 13:02:41;;;;;;;;;7.67;7.67;18.80;99.90;;;;;;5000735;28;9330;-59
2022/10/08 13:05:30;;;;;;;;;5.67;5.67;18.70;99.90;;;;;;4999770;28;9183;-61
2022/10/08 13:08:36;;;;;;;;;8.33;7.67;18.70;99.90;;;;;;5003712;28;9206;-61
2022/10/08 13:11:12;;;;;;;;;6.00;6.00;18.80;99.90;;;;;;5001101;28;9387;-59
2022/10/08 13:13:53;;;;;;;;;8.00;8.00;18.80;99.90;;;;;;5030514;28;9191;-59
2022/10/08 13:16:27;;;;;;;;;8.33;8.33;18.90;99.90;;;;;;5005730;28;10229;-59
2022/10/08 13:18:58;;;;;;;;;7.33;7.33;18.90;99.90;;;;;;5018637;28;9441;-61
2022/10/08 13:21:31;;;;;;;;;11.33;10.00;18.90;99.90;;;;;;5001584;28;9508;-60
2022/10/08 13:24:20;;;;;;;;;10.00;10.00;19.10;99.90;;;;;;5001660;28;9396;-61
2022/10/08 13:26:54;;;;;;;;;7.00;7.00;19.20;99.90;;;;;;5015952;28;9950;-61
2022/10/08 13:29:29;;;;;;;;;11.00;11.00;19.20;99.90;;;;;;5001757;28;9481;-61
2022/10/08 13:32:13;;;;;;;;;10.00;10.00;19.30;99.90;;;;;;5002087;28;9400;-60
2022/10/08 13:34:59;;;;;;;;;11.00;11.00;19.20;99.90;;;;;;4999705;28;9413;-60
2022/10/08 13:37:37;;;;;;;;;10.00;10.00;19.30;99.90;;;;;;5032393;28;9248;-60
2022/10/08 13:40:12;;;;;;;;;10.00;10.00;19.50;99.90;;;;;;5001089;28;9484;-59
2022/10/08 13:42:57;;;;;;;;;10.00;10.00;19.50;99.90;;;;;;5001904;28;9332;-59
2022/10/08 13:45:36;;;;;;;;;12.33;12.33;19.50;99.90;;;;;;5002222;28;9382;-60
2022/10/08 13:48:14;;;;;;;;;8.67;8.67;19.60;99.90;;;;;;5004185;28;9349;-59
2022/10/08 13:50:50;;;;;;;;;11.00;11.00;19.70;99.90;;;;;;5011557;28;10112;-60
2022/10/08 13:53:26;;;;;;;;;12.67;12.67;19.70;99.90;;;;;;5008216;28;10222;-61